Terminal Aerodrome Forecast
Issued by NWS St Louis, MO

Home | Current Version | Previous Version | Text Only | Print | Product List | Glossary On
Versions: 1 2 3 4 5 6 7 8 9 10 11 12 13 14 15 16 17 18 19 20 21 22 23 24 25 26 27 28 29 30 31
000
FTUS43 KLSX 070819 AAA
TAFSTL
TAF AMD
KSTL 070819Z 0708/0812 26008KT 5SM -RA VCTS SCT015CB OVC030
      TEMPO 0708/0711 2SM -RA BR SCT005 OVC010
     FM071100 30008KT P6SM -SHRA OVC010
     FM072000 01008KT P6SM VCSH OVC015
     FM080000 05007KT P6SM SCT025 BKN050
     FM081000 07004KT P6SM VCTS BKN030CB=

USA.gov is the U.S. government's official web portal to all federal, state and local government web resources and services.